Time;durP1;ratioP1;P1;durP2;ratioP2;P2;SDS_P1;SDS_P2;PMS_P1;PMS_P2;Temp;Humidity;BMP_temperature;BMP_pressure;BME280_temperature;BME280_humidity;BME280_pressure;Samples;Min_cycle;Max_cycle;Signal;HPM_P1;HPM_P2
2023/08/10 00:02:04;;;;;;;7.32;2.40;;;14.00;99.90;;;;;;5072605;28;20043;-73
2023/08/10 00:04:30;;;;;;;6.75;2.28;;;14.10;99.90;;;;;;5072667;28;20057;-74
2023/08/10 00:06:55;;;;;;;10.98;2.50;;;14.10;99.90;;;;;;5072528;28;20094;-74
2023/08/10 00:09:21;;;;;;;6.10;2.70;;;13.90;99.90;;;;;;5072477;28;20174;-73
2023/08/10 00:11:46;;;;;;;5.55;2.60;;;14.00;99.90;;;;;;5072486;28;20044;-74
2023/08/10 00:14:12;;;;;;;5.65;2.50;;;13.90;99.90;;;;;;5072436;28;20036;-73
2023/08/10 00:16:38;;;;;;;7.40;2.40;;;14.00;99.90;;;;;;5072326;28;20033;-74
2023/08/10 00:19:04;;;;;;;8.95;3.25;;;13.90;99.90;;;;;;5072261;28;20113;-74
2023/08/10 00:21:30;;;;;;;7.22;3.70;;;13.80;99.90;;;;;;5055728;28;20044;-74
2023/08/10 00:23:56;;;;;;;5.68;2.53;;;13.90;99.90;;;;;;5072105;28;20040;-74
2023/08/10 00:26:25;;;;;;;6.20;2.33;;;13.60;99.90;;;;;;5072401;28;20481;-73
2023/08/10 00:28:51;;;;;;;4.93;2.90;;;13.80;99.90;;;;;;5071935;28;20048;-74
2023/08/10 00:31:17;;;;;;;5.93;3.10;;;13.80;99.90;;;;;;5072105;28;20102;-73
2023/08/10 00:33:43;;;;;;;7.57;2.70;;;13.70;99.90;;;;;;5072057;28;20036;-74
2023/08/10 00:36:09;;;;;;;9.40;2.63;;;13.60;99.90;;;;;;5072096;28;20037;-73
2023/08/10 00:38:38;;;;;;;5.97;2.30;;;13.70;99.90;;;;;;5071667;28;20029;-74
2023/08/10 00:41:04;;;;;;;4.13;2.30;;;13.70;99.90;;;;;;5071942;28;20036;-73
2023/08/10 00:43:30;;;;;;;5.20;3.28;;;13.70;99.90;;;;;;5071783;28;20044;-74
2023/08/10 00:45:56;;;;;;;5.72;2.38;;;13.60;99.90;;;;;;5071912;28;20044;-74
2023/08/10 00:48:23;;;;;;;9.98;2.67;;;13.80;99.90;;;;;;5071767;28;20132;-74
2023/08/10 00:50:49;;;;;;;4.57;2.53;;;13.50;99.90;;;;;;5055062;28;20043;-73
2023/08/10 00:53:17;;;;;;;9.60;2.72;;;13.70;99.90;;;;;;5071670;28;20036;-73
2023/08/10 00:55:43;;;;;;;6.68;3.10;;;13.50;99.90;;;;;;5054880;28;20044;-73
2023/08/10 00:58:11;;;;;;;4.95;2.20;;;13.60;99.90;;;;;;5054558;28;20033;-74
2023/08/10 01:00:37;;;;;;;10.40;2.50;;;13.70;99.90;;;;;;5054856;28;20039;-74
2023/08/10 01:03:04;;;;;;;5.00;2.65;;;13.60;99.90;;;;;;5071669;28;20101;-73
2023/08/10 01:05:37;;;;;;;10.48;3.50;;;13.70;99.90;;;;;;5071555;28;20527;-73
2023/08/10 01:08:25;;;;;;;5.30;2.47;;;13.70;99.90;;;;;;5071423;28;20066;-73
2023/08/10 01:11:00;;;;;;;7.72;2.65;;;13.80;99.90;;;;;;5071614;28;20066;-73
2023/08/10 01:13:34;;;;;;;5.20;2.60;;;13.50;99.90;;;;;;5071249;28;20044;-73
2023/08/10 01:16:05;;;;;;;5.70;2.47;;;13.80;99.90;;;;;;5054458;28;20039;-73
2023/08/10 01:18:33;;;;;;;7.18;3.13;;;13.60;99.90;;;;;;5070971;28;20032;-73
2023/08/10 01:21:00;;;;;;;6.47;3.20;;;13.50;99.90;;;;;;5054673;28;20123;-74
2023/08/10 01:23:39;;;;;;;7.88;3.40;;;13.80;99.90;;;;;;5071109;28;20044;-74
2023/08/10 01:26:05;;;;;;;4.50;2.78;;;13.50;99.90;;;;;;5054169;28;20040;-74
2023/08/10 01:28:33;;;;;;;7.53;2.40;;;13.50;99.90;;;;;;5070970;28;20062;-73
2023/08/10 01:30:59;;;;;;;5.05;2.30;;;13.60;99.90;;;;;;5054277;28;20094;-73
2023/08/10 01:33:26;;;;;;;5.03;2.67;;;13.50;99.90;;;;;;5070737;28;20040;-73
2023/08/10 01:35:52;;;;;;;5.32;2.35;;;13.80;99.90;;;;;;5070718;28;20516;-73
2023/08/10 01:38:18;;;;;;;4.43;2.55;;;13.90;99.90;;;;;;5070564;28;20083;-73
2023/08/10 01:40:43;;;;;;;7.95;2.97;;;13.90;99.90;;;;;;5070693;28;20076;-73
2023/08/10 01:43:09;;;;;;;3.22;2.17;;;13.80;99.90;;;;;;5071027;28;20062;-73
2023/08/10 01:45:34;;;;;;;10.10;2.85;;;13.70;99.90;;;;;;5070597;28;20094;-73
2023/08/10 01:48:17;;;;;;;4.75;2.58;;;13.70;99.90;;;;;;5070258;28;20048;-73
2023/08/10 01:50:45;;;;;;;6.72;2.72;;;13.70;99.90;;;;;;5070687;28;20500;-73
2023/08/10 01:53:15;;;;;;;7.85;2.72;;;13.90;99.90;;;;;;5053939;28;20087;-74
2023/08/10 01:55:41;;;;;;;12.20;2.80;;;13.80;99.90;;;;;;5070713;28;20534;-74
2023/08/10 01:58:07;;;;;;;5.95;2.78;;;13.70;99.90;;;;;;5053167;28;20041;-73
2023/08/10 02:00:37;;;;;;;5.53;3.33;;;14.00;99.90;;;;;;5070567;28;20044;-74
2023/08/10 02:03:03;;;;;;;5.40;2.80;;;14.00;99.90;;;;;;5070541;28;20047;-74
2023/08/10 02:05:29;;;;;;;5.05;2.58;;;13.90;99.90;;;;;;5070478;28;20041;-74
2023/08/10 02:07:54;;;;;;;5.95;2.60;;;13.90;99.90;;;;;;5070286;28;20056;-74
2023/08/10 02:10:20;;;;;;;5.43;3.25;;;14.10;99.90;;;;;;5070414;28;20143;-74
2023/08/10 02:12:46;;;;;;;5.82;2.97;;;14.00;99.90;;;;;;5070485;28;20054;-74
2023/08/10 02:15:12;;;;;;;7.38;2.92;;;13.80;99.90;;;;;;5070338;28;20463;-74
2023/08/10 02:17:38;;;;;;;5.28;2.80;;;13.80;99.90;;;;;;5070198;28;20045;-74
2023/08/10 02:20:14;;;;;;;6.53;2.67;;;13.90;99.90;;;;;;5053828;28;20040;-74
2023/08/10 02:22:48;;;;;;;6.10;2.92;;;13.70;99.90;;;;;;5070361;28;20062;-74
2023/08/10 02:25:14;;;;;;;5.70;2.65;;;13.80;99.90;;;;;;5070022;28;20041;-74
2023/08/10 02:27:40;;;;;;;8.43;2.70;;;13.80;99.90;;;;;;5069893;28;20067;-74
2023/08/10 02:30:07;;;;;;;8.00;2.88;;;14.00;99.90;;;;;;5070287;28;20047;-74
2023/08/10 02:32:33;;;;;;;6.03;2.70;;;13.80;99.90;;;;;;5070137;28;20500;-74
2023/08/10 02:34:59;;;;;;;3.50;2.47;;;13.80;99.90;;;;;;5070438;28;20028;-74
2023/08/10 02:37:25;;;;;;;6.22;2.40;;;14.10;99.90;;;;;;5053200;28;20551;-74
2023/08/10 02:39:51;;;;;;;5.45;2.63;;;13.90;99.90;;;;;;5053577;28;20045;-74
2023/08/10 02:42:16;;;;;;;7.47;2.35;;;14.10;99.90;;;;;;5053349;28;20075;-74
2023/08/10 02:44:43;;;;;;;9.70;3.42;;;14.10;99.90;;;;;;5070047;28;20048;-74
2023/08/10 02:47:09;;;;;;;6.72;3.03;;;14.00;99.90;;;;;;5069812;28;20081;-74
2023/08/10 02:49:34;;;;;;;4.60;2.30;;;13.90;99.90;;;;;;5053449;28;20040;-74
2023/08/10 02:52:00;;;;;;;4.20;2.58;;;14.00;99.90;;;;;;5069999;28;20082;-74
2023/08/10 02:54:25;;;;;;;4.13;2.10;;;14.00;99.90;;;;;;5069927;28;20125;-74
2023/08/10 02:56:51;;;;;;;3.30;2.10;;;14.00;99.90;;;;;;5069775;28;20075;-74
2023/08/10 02:59:16;;;;;;;5.35;2.10;;;13.90;99.90;;;;;;5070046;28;20047;-74
2023/08/10 03:01:45;;;;;;;4.82;2.20;;;14.00;99.90;;;;;;5053258;28;20032;-74
2023/08/10 03:04:11;;;;;;;4.55;1.90;;;14.00;99.90;;;;;;5053141;28;20040;-74
2023/08/10 03:06:37;;;;;;;3.83;2.13;;;14.00;99.90;;;;;;5069772;28;20458;-74
2023/08/10 03:09:03;;;;;;;4.40;2.55;;;14.00;99.90;;;;;;5069739;28;20040;-74
2023/08/10 03:11:30;;;;;;;9.45;2.28;;;14.10;99.90;;;;;;5072481;28;20051;-74
2023/08/10 03:13:55;;;;;;;3.35;1.85;;;13.90;99.90;;;;;;5073773;28;20043;-74
2023/08/10 03:16:21;;;;;;;6.05;2.53;;;14.10;99.90;;;;;;5073513;28;20123;-74
2023/08/10 03:18:46;;;;;;;5.10;2.88;;;14.10;99.90;;;;;;5073402;28;20028;-74
2023/08/10 03:21:12;;;;;;;6.15;2.80;;;13.90;99.90;;;;;;5073495;28;20090;-74
2023/08/10 03:23:37;;;;;;;5.13;2.97;;;13.80;99.90;;;;;;5073309;28;20036;-74
2023/08/10 03:26:03;;;;;;;5.63;2.70;;;14.10;99.90;;;;;;5073099;28;20124;-74
2023/08/10 03:28:29;;;;;;;4.93;2.72;;;14.00;99.90;;;;;;5073077;28;20043;-74
2023/08/10 03:30:54;;;;;;;5.55;3.00;;;13.80;99.90;;;;;;5073498;28;20475;-74
2023/08/10 03:33:20;;;;;;;6.32;3.00;;;13.90;99.90;;;;;;5073167;28;20040;-74
2023/08/10 03:35:46;;;;;;;6.68;2.80;;;14.00;99.90;;;;;;5073362;28;20039;-74
2023/08/10 03:38:12;;;;;;;6.78;2.80;;;13.90;99.90;;;;;;5072840;28;20036;-74
2023/08/10 03:40:38;;;;;;;5.57;2.90;;;14.10;99.90;;;;;;5073018;28;20112;-74
2023/08/10 03:43:03;;;;;;;7.60;3.20;;;13.90;99.90;;;;;;5073327;28;20044;-74
2023/08/10 03:45:29;;;;;;;8.63;2.92;;;14.20;99.90;;;;;;5072944;28;20047;-74
2023/08/10 03:47:55;;;;;;;6.00;2.80;;;14.30;99.90;;;;;;5072710;28;20044;-74
2023/08/10 03:50:20;;;;;;;8.88;2.97;;;14.20;99.90;;;;;;5073104;28;20040;-74
2023/08/10 03:52:46;;;;;;;7.55;2.53;;;14.20;99.90;;;;;;5072815;28;20082;-74
2023/08/10 03:55:12;;;;;;;6.03;2.97;;;14.20;99.90;;;;;;5072667;28;20082;-74
2023/08/10 03:57:38;;;;;;;3.70;2.88;;;14.00;99.90;;;;;;5072747;28;20036;-74
2023/08/10 04:00:05;;;;;;;7.65;3.78;;;14.10;99.90;;;;;;5072792;28;20511;-74
2023/08/10 04:02:30;;;;;;;5.82;3.38;;;13.90;99.90;;;;;;5072386;28;20049;-74
2023/08/10 04:04:56;;;;;;;6.53;2.75;;;14.30;99.90;;;;;;5072075;28;20067;-74
2023/08/10 04:07:22;;;;;;;5.50;3.30;;;13.90;99.90;;;;;;5072311;28;20124;-74
2023/08/10 04:09:47;;;;;;;6.05;3.10;;;14.20;99.90;;;;;;5072678;28;20041;-74
2023/08/10 04:12:14;;;;;;;6.57;3.08;;;14.20;99.90;;;;;;5072509;28;20037;-74
2023/08/10 04:14:40;;;;;;;4.80;2.83;;;14.10;99.90;;;;;;5055646;28;20036;-74
2023/08/10 04:17:05;;;;;;;7.95;2.92;;;14.10;99.90;;;;;;5073623;28;20111;-74
2023/08/10 04:19:31;;;;;;;8.05;3.40;;;14.00;99.90;;;;;;5072178;28;20502;-74
2023/08/10 04:21:57;;;;;;;8.35;3.15;;;14.20;99.90;;;;;;5055164;28;20136;-74
2023/08/10 04:24:22;;;;;;;7.75;3.30;;;14.00;99.90;;;;;;5072341;28;20052;-75
2023/08/10 04:26:48;;;;;;;4.75;2.70;;;14.30;99.90;;;;;;5055572;28;20041;-75
2023/08/10 04:29:14;;;;;;;6.05;3.03;;;14.20;99.90;;;;;;5072327;28;20064;-75
2023/08/10 04:31:40;;;;;;;7.38;3.50;;;14.00;99.90;;;;;;5073400;28;20499;-75
2023/08/10 04:34:06;;;;;;;5.78;3.00;;;14.20;99.90;;;;;;5072328;28;20086;-75
2023/08/10 04:36:33;;;;;;;8.63;2.72;;;14.40;99.90;;;;;;5071882;28;20036;-75
2023/08/10 04:38:59;;;;;;;4.65;3.05;;;14.10;99.90;;;;;;5055150;28;20040;-75
2023/08/10 04:41:25;;;;;;;5.55;2.90;;;14.10;99.90;;;;;;5071987;28;20041;-75
2023/08/10 04:43:51;;;;;;;5.22;3.40;;;14.40;99.90;;;;;;5055186;28;20041;-75
2023/08/10 04:46:16;;;;;;;6.63;2.78;;;14.50;99.90;;;;;;5055151;28;20036;-75
2023/08/10 04:48:42;;;;;;;7.68;2.58;;;14.30;99.90;;;;;;5071366;28;20430;-75
2023/08/10 04:51:07;;;;;;;6.68;3.50;;;14.50;99.90;;;;;;5055236;28;20032;-75
2023/08/10 04:53:33;;;;;;;5.60;2.92;;;14.30;99.90;;;;;;5071540;28;20089;-74
2023/08/10 04:55:59;;;;;;;5.85;2.90;;;14.30;99.90;;;;;;5071575;28;20385;-74
2023/08/10 04:58:24;;;;;;;3.00;2.30;;;14.40;99.90;;;;;;5071348;28;20170;-75
2023/08/10 05:00:52;;;;;;;3.85;2.63;;;14.50;99.90;;;;;;5054931;28;20040;-75
2023/08/10 05:03:20;;;;;;;7.20;2.88;;;14.40;99.90;;;;;;5071809;28;20530;-75
2023/08/10 05:05:46;;;;;;;5.32;2.40;;;14.40;99.90;;;;;;5054621;28;20048;-74
2023/08/10 05:08:12;;;;;;;7.05;2.97;;;14.20;99.90;;;;;;5071156;28;20047;-75
2023/08/10 05:10:38;;;;;;;3.08;2.28;;;14.50;99.90;;;;;;5055098;28;20048;-75
2023/08/10 05:13:04;;;;;;;7.22;2.65;;;14.60;99.90;;;;;;5054699;28;20032;-75
2023/08/10 05:15:30;;;;;;;6.28;2.60;;;14.60;99.90;;;;;;5071465;28;20431;-75
2023/08/10 05:17:56;;;;;;;7.10;2.83;;;14.70;99.90;;;;;;5054309;28;20090;-75
2023/08/10 05:20:22;;;;;;;4.50;3.33;;;14.40;99.90;;;;;;5054556;28;20040;-75
2023/08/10 05:22:49;;;;;;;5.43;2.60;;;14.50;99.90;;;;;;5071187;28;20047;-75
2023/08/10 05:25:15;;;;;;;6.22;2.72;;;14.70;99.90;;;;;;5054240;28;20044;-75
2023/08/10 05:27:40;;;;;;;2.50;2.13;;;14.50;99.90;;;;;;5070806;28;20147;-75
2023/08/10 05:30:08;;;;;;;5.85;2.60;;;14.50;99.90;;;;;;5071297;28;20048;-75
2023/08/10 05:32:36;;;;;;;6.00;2.72;;;14.70;99.90;;;;;;5053637;28;20076;-75
2023/08/10 05:35:02;;;;;;;3.33;2.53;;;14.60;99.90;;;;;;5070873;28;20091;-75
2023/08/10 05:37:27;;;;;;;5.60;2.58;;;14.70;99.90;;;;;;5070529;28;20036;-75
2023/08/10 05:39:53;;;;;;;5.78;2.80;;;14.90;99.90;;;;;;5054249;28;20464;-75
2023/08/10 05:42:18;;;;;;;4.40;2.80;;;15.00;99.90;;;;;;5070821;28;20041;-75
2023/08/10 05:44:45;;;;;;;5.32;3.03;;;15.00;99.90;;;;;;5054075;28;20051;-74
2023/08/10 05:47:11;;;;;;;5.35;2.90;;;15.20;99.90;;;;;;5070490;28;20083;-75
2023/08/10 05:49:37;;;;;;;5.75;2.38;;;15.00;99.90;;;;;;5070647;28;20047;-75
2023/08/10 05:52:03;;;;;;;6.13;2.25;;;14.90;99.90;;;;;;5070946;28;20044;-75
2023/08/10 05:54:29;;;;;;;5.82;2.50;;;15.00;99.90;;;;;;5053906;28;20480;-74
2023/08/10 05:56:55;;;;;;;6.00;2.60;;;14.90;99.90;;;;;;5070781;28;20036;-74
2023/08/10 05:59:20;;;;;;;6.18;3.03;;;15.00;99.90;;;;;;5070461;28;20167;-74
2023/08/10 06:01:47;;;;;;;3.75;2.10;;;15.10;99.90;;;;;;5053859;28;20036;-74
2023/08/10 06:04:14;;;;;;;6.32;2.40;;;15.20;99.90;;;;;;5070615;28;20403;-74
2023/08/10 06:06:39;;;;;;;9.35;2.60;;;15.10;99.90;;;;;;5070386;28;20044;-74
2023/08/10 06:09:07;;;;;;;3.55;2.15;;;15.10;99.90;;;;;;5053680;28;20043;-75
2023/08/10 06:11:33;;;;;;;6.53;2.50;;;15.10;99.90;;;;;;5053747;28;20143;-75
2023/08/10 06:13:59;;;;;;;6.65;2.72;;;15.00;99.90;;;;;;5070342;28;20543;-74
2023/08/10 06:16:25;;;;;;;5.97;3.33;;;15.20;99.90;;;;;;5071087;28;20049;-75
2023/08/10 06:18:51;;;;;;;6.32;2.80;;;15.20;99.90;;;;;;5070349;28;20041;-75
2023/08/10 06:21:18;;;;;;;5.93;2.22;;;15.40;99.90;;;;;;5070486;28;20041;-75
2023/08/10 06:23:44;;;;;;;5.40;2.95;;;15.20;99.90;;;;;;5070474;28;20395;-75
2023/08/10 06:26:11;;;;;;;4.60;2.33;;;15.40;99.90;;;;;;5070162;28;20089;-74
2023/08/10 06:28:36;;;;;;;4.75;2.45;;;15.60;99.90;;;;;;5053305;28;20037;-75
2023/08/10 06:31:02;;;;;;;4.75;2.60;;;15.70;99.90;;;;;;5070218;28;20051;-75
2023/08/10 06:33:28;;;;;;;4.38;2.63;;;15.90;99.90;;;;;;5053445;28;20500;-74
2023/08/10 06:35:54;;;;;;;9.70;2.92;;;16.50;99.90;;;;;;5070449;28;20111;-74
2023/08/10 06:38:20;;;;;;;4.05;2.28;;;17.00;99.90;;;;;;5053226;28;20124;-75
2023/08/10 06:40:45;;;;;;;6.57;2.70;;;17.50;99.90;;;;;;5053479;28;20116;-74
2023/08/10 06:43:11;;;;;;;7.85;2.40;;;18.10;99.90;;;;;;5070346;28;20052;-75
2023/08/10 06:45:36;;;;;;;7.80;2.83;;;18.20;99.90;;;;;;5073210;28;20044;-74
2023/08/10 06:48:02;;;;;;;9.80;2.60;;;18.50;99.90;;;;;;5074088;28;20037;-75
2023/08/10 06:50:28;;;;;;;4.30;2.10;;;18.50;99.90;;;;;;5074067;28;20488;-75
2023/08/10 06:52:53;;;;;;;6.15;2.45;;;19.00;99.90;;;;;;5074040;28;20078;-74
2023/08/10 06:55:19;;;;;;;3.15;1.95;;;19.30;99.90;;;;;;5072982;28;20054;-75
2023/08/10 06:57:44;;;;;;;3.40;1.65;;;19.70;99.90;;;;;;5072706;28;20036;-75
2023/08/10 07:00:13;;;;;;;6.53;1.83;;;20.00;99.90;;;;;;5073291;28;20094;-75
2023/08/10 07:02:39;;;;;;;6.63;1.77;;;20.20;99.90;;;;;;5073316;28;20499;-75
2023/08/10 07:05:05;;;;;;;4.13;1.63;;;20.50;99.90;;;;;;5073565;28;20039;-75
2023/08/10 07:07:31;;;;;;;4.22;1.70;;;20.60;99.90;;;;;;5073433;28;20404;-75
2023/08/10 07:09:58;;;;;;;5.35;1.50;;;20.80;99.90;;;;;;5056948;28;20040;-75
2023/08/10 07:12:24;;;;;;;4.05;1.70;;;21.00;99.90;;;;;;5073557;28;20036;-75
2023/08/10 07:14:49;;;;;;;6.80;1.67;;;21.30;99.90;;;;;;5073593;28;20036;-75
2023/08/10 07:17:15;;;;;;;6.65;1.42;;;21.60;99.90;;;;;;5073237;28;20086;-75
2023/08/10 07:19:40;;;;;;;10.68;1.35;;;21.50;99.90;;;;;;5073832;28;20137;-76
2023/08/10 07:22:06;;;;;;;6.30;1.17;;;21.70;99.90;;;;;;5074066;28;20037;-76
2023/08/10 07:24:32;;;;;;;4.18;1.40;;;21.40;99.90;;;;;;5073453;28;20594;-75
2023/08/10 07:26:57;;;;;;;4.53;1.85;;;21.30;99.90;;;;;;5056736;28;20127;-75
2023/08/10 07:29:23;;;;;;;9.30;1.45;;;21.60;99.90;;;;;;5073398;28;20052;-75
2023/08/10 07:31:49;;;;;;;10.35;2.60;;;21.80;99.90;;;;;;5056564;28;20040;-75
2023/08/10 07:34:14;;;;;;;5.13;1.30;;;22.00;99.90;;;;;;5073263;28;20051;-74
2023/08/10 07:36:40;;;;;;;5.05;1.10;;;21.90;99.90;;;;;;5072761;28;20048;-74
2023/08/10 07:39:06;;;;;;;5.15;1.30;;;21.70;99.90;;;;;;5073375;28;20430;-74
2023/08/10 07:41:31;;;;;;;4.10;0.90;;;21.70;99.90;;;;;;5073193;28;20078;-74
2023/08/10 07:43:57;;;;;;;5.63;1.33;;;21.80;99.90;;;;;;5056452;28;20071;-74
2023/08/10 07:46:23;;;;;;;3.60;0.90;;;22.10;99.90;;;;;;5072925;28;20398;-74
2023/08/10 07:48:48;;;;;;;4.13;1.45;;;22.10;99.90;;;;;;5073176;28;20036;-74
2023/08/10 07:51:14;;;;;;;3.63;0.90;;;22.30;99.90;;;;;;5073094;28;20037;-74
2023/08/10 07:53:39;;;;;;;5.03;1.50;;;22.10;99.90;;;;;;5074258;28;20076;-74
2023/08/10 07:56:05;;;;;;;5.70;1.42;;;22.50;99.90;;;;;;5071925;28;20047;-74
2023/08/10 07:58:30;;;;;;;6.03;1.42;;;22.50;99.90;;;;;;5072632;28;20056;-74
2023/08/10 08:00:56;;;;;;;5.50;1.20;;;22.70;99.90;;;;;;5056164;28;20444;-74
2023/08/10 08:03:22;;;;;;;5.60;1.33;;;22.60;99.90;;;;;;5073993;28;20044;-74
2023/08/10 08:05:47;;;;;;;3.97;1.55;;;22.70;99.90;;;;;;5072665;28;20047;-74
2023/08/10 08:08:13;;;;;;;4.25;1.10;;;22.60;99.90;;;;;;5073834;28;20070;-74
2023/08/10 08:10:39;;;;;;;6.47;1.65;;;22.30;99.90;;;;;;5072937;28;20051;-74
2023/08/10 08:13:06;;;;;;;3.70;1.00;;;21.90;99.90;;;;;;5055836;28;20040;-74
2023/08/10 08:15:35;;;;;;;4.72;1.23;;;21.60;99.90;;;;;;5072456;28;20051;-74
2023/08/10 08:18:55;;;;;;;8.05;1.55;;;21.30;99.90;;;;;;5072230;28;20040;-74
2023/08/10 08:21:23;;;;;;;4.10;1.15;;;21.20;99.90;;;;;;5015241;28;20505;-74
2023/08/10 08:23:50;;;;;;;5.88;1.17;;;21.10;99.90;;;;;;5064485;28;20067;-74
2023/08/10 08:26:17;;;;;;;4.25;0.93;;;21.10;99.90;;;;;;5072610;28;20044;-74
2023/08/10 08:28:44;;;;;;;4.43;1.30;;;21.10;99.90;;;;;;5072444;28;20040;-74
2023/08/10 08:31:10;;;;;;;5.75;0.93;;;21.10;99.90;;;;;;5072322;28;20062;-74
2023/08/10 08:33:38;;;;;;;4.20;1.10;;;21.10;99.90;;;;;;5072133;28;20120;-74
2023/08/10 08:36:05;;;;;;;4.05;2.17;;;21.00;99.90;;;;;;5072015;28;20108;-74
2023/08/10 08:38:32;;;;;;;4.57;1.13;;;20.80;99.90;;;;;;5073112;28;20090;-74
2023/08/10 08:41:00;;;;;;;5.90;1.00;;;20.70;99.90;;;;;;5054940;28;20044;-74
2023/08/10 08:43:25;;;;;;;4.47;1.15;;;20.60;99.90;;;;;;5071193;28;20041;-74
2023/08/10 08:45:51;;;;;;;4.68;0.98;;;20.50;99.90;;;;;;5071694;28;20052;-74
2023/08/10 08:48:17;;;;;;;3.05;0.90;;;20.30;99.90;;;;;;5071667;28;20561;-74
2023/08/10 08:50:45;;;;;;;3.22;1.15;;;20.20;99.90;;;;;;5071887;28;20040;-74
2023/08/10 08:53:12;;;;;;;7.90;3.70;;;20.10;99.90;;;;;;5071724;28;20044;-74
2023/08/10 08:55:39;;;;;;;2.92;1.00;;;19.80;99.90;;;;;;5071515;28;20123;-74
2023/08/10 08:58:05;;;;;;;5.93;0.88;;;19.60;99.90;;;;;;5054729;28;20051;-74
2023/08/10 09:00:31;;;;;;;4.15;0.90;;;19.50;99.90;;;;;;5071874;28;20451;-74
2023/08/10 09:02:58;;;;;;;5.90;1.45;;;19.30;99.90;;;;;;5071679;28;20040;-74
2023/08/10 09:05:24;;;;;;;5.35;0.88;;;19.20;99.90;;;;;;5072654;28;20410;-74
2023/08/10 09:07:53;;;;;;;6.75;1.30;;;19.30;99.90;;;;;;5072788;28;20043;-74
2023/08/10 09:10:20;;;;;;;5.10;1.30;;;19.20;99.90;;;;;;5071702;28;20106;-74
2023/08/10 09:12:47;;;;;;;4.88;1.15;;;19.10;99.90;;;;;;5054746;28;20040;-74
2023/08/10 09:15:17;;;;;;;5.35;1.45;;;19.00;99.90;;;;;;5071320;28;20044;-74
2023/08/10 09:17:46;;;;;;;6.15;1.30;;;19.00;99.90;;;;;;5071221;28;20548;-74
2023/08/10 09:20:24;;;;;;;5.68;1.30;;;19.00;99.90;;;;;;5071217;28;20044;-74
2023/08/10 09:22:51;;;;;;;4.05;0.77;;;19.00;99.90;;;;;;5071309;28;20072;-74
2023/08/10 09:25:17;;;;;;;3.40;0.93;;;18.90;99.90;;;;;;5070974;28;20510;-74
2023/08/10 09:27:47;;;;;;;2.50;0.70;;;18.90;99.90;;;;;;5070851;28;20167;-74
2023/08/10 09:30:14;;;;;;;3.05;0.98;;;19.00;99.90;;;;;;5071145;28;20086;-74
2023/08/10 09:32:40;;;;;;;2.55;0.70;;;19.10;99.90;;;;;;5054068;28;20036;-74
2023/08/10 09:35:11;;;;;;;5.97;0.98;;;19.10;99.90;;;;;;5071192;28;20036;-74
2023/08/10 09:37:37;;;;;;;2.65;0.90;;;19.00;99.90;;;;;;5071022;28;20051;-74
2023/08/10 09:40:08;;;;;;;3.97;0.82;;;19.00;99.90;;;;;;5071187;28;20119;-74
2023/08/10 09:42:34;;;;;;;1.95;0.93;;;18.90;99.90;;;;;;5071128;28;20391;-74
2023/08/10 09:45:13;;;;;;;2.45;1.00;;;18.90;99.90;;;;;;5070669;28;20044;-74
2023/08/10 09:47:41;;;;;;;4.20;1.33;;;19.00;99.90;;;;;;5070527;28;20123;-74
2023/08/10 09:50:09;;;;;;;2.60;0.80;;;18.90;99.90;;;;;;5070779;28;20052;-74
2023/08/10 09:52:36;;;;;;;1.38;0.82;;;19.00;99.90;;;;;;5070699;28;20036;-74
2023/08/10 09:55:04;;;;;;;3.08;0.80;;;19.00;99.90;;;;;;5070707;28;20079;-74
2023/08/10 09:57:30;;;;;;;2.83;0.80;;;19.00;99.90;;;;;;5053680;28;20048;-73
2023/08/10 09:59:56;;;;;;;3.80;1.05;;;19.00;99.90;;;;;;5070671;28;20396;-74
2023/08/10 10:02:23;;;;;;;3.70;0.90;;;19.10;99.90;;;;;;5070605;28;20499;-74
2023/08/10 10:04:49;;;;;;;3.50;1.00;;;19.10;99.90;;;;;;5070428;28;20508;-74
2023/08/10 10:07:18;;;;;;;2.50;1.20;;;19.30;99.90;;;;;;5070530;28;20048;-74
2023/08/10 10:09:44;;;;;;;4.53;0.90;;;19.40;99.90;;;;;;5070739;28;20048;-74
2023/08/10 10:12:13;;;;;;;6.22;1.10;;;19.50;99.90;;;;;;5053704;28;20051;-74
2023/08/10 10:14:40;;;;;;;5.03;1.05;;;19.50;99.90;;;;;;5070392;28;20040;-74
2023/08/10 10:17:06;;;;;;;3.03;0.73;;;19.40;99.90;;;;;;5070520;28;20373;-74
2023/08/10 10:19:33;;;;;;;4.78;0.88;;;19.40;99.90;;;;;;5069767;28;20036;-74
2023/08/10 10:22:00;;;;;;;6.40;1.30;;;19.50;99.90;;;;;;5070390;28;20044;-74
2023/08/10 10:24:31;;;;;;;3.30;0.98;;;19.70;99.90;;;;;;5092655;22;20406;-72
2023/08/10 10:27:02;;;;;;;3.10;1.13;;;19.70;99.90;;;;;;5051227;28;20408;-72
2023/08/10 10:29:41;;;;;;;3.17;1.08;;;19.50;99.90;;;;;;5051043;28;20488;-72
2023/08/10 10:32:11;;;;;;;3.55;0.85;;;19.60;99.90;;;;;;5051534;28;20041;-72
2023/08/10 10:34:38;;;;;;;1.48;0.77;;;19.50;99.90;;;;;;5051242;28;20091;-72
2023/08/10 10:37:13;;;;;;;4.28;1.08;;;19.40;99.90;;;;;;5051483;28;20037;-71
2023/08/10 10:39:44;;;;;;;6.25;1.48;;;19.40;99.90;;;;;;5050171;28;20048;-72
2023/08/10 10:42:11;;;;;;;2.05;0.90;;;19.20;99.90;;;;;;5051493;28;20041;-72
2023/08/10 10:45:14;;;;;;;4.70;1.00;;;19.30;99.90;;;;;;5051255;28;20040;-72
2023/08/10 10:47:49;;;;;;;3.65;0.75;;;19.40;99.90;;;;;;5049981;28;20037;-72
2023/08/10 10:50:29;;;;;;;4.15;1.15;;;19.30;99.90;;;;;;5051281;28;20515;-72
2023/08/10 10:53:02;;;;;;;2.80;0.85;;;19.50;99.90;;;;;;5051358;28;20124;-72
2023/08/10 10:55:40;;;;;;;3.58;0.80;;;19.50;99.90;;;;;;5051136;28;20041;-72
2023/08/10 10:58:07;;;;;;;2.70;0.90;;;19.50;99.90;;;;;;5050006;28;20119;-72
2023/08/10 11:00:36;;;;;;;7.85;1.23;;;19.50;99.90;;;;;;5051294;28;20114;-72
2023/08/10 11:03:06;;;;;;;2.67;0.98;;;19.40;99.90;;;;;;5051274;28;20056;-72
2023/08/10 11:05:32;;;;;;;2.30;0.63;;;19.40;99.90;;;;;;5049781;28;20053;-72
2023/08/10 11:08:03;;;;;;;1.75;0.80;;;19.50;99.90;;;;;;5050884;28;20110;-72
2023/08/10 11:10:31;;;;;;;3.58;0.95;;;19.40;99.90;;;;;;5051396;28;20045;-72
2023/08/10 11:12:57;;;;;;;3.58;0.95;;;19.50;99.90;;;;;;5049736;28;20492;-72
2023/08/10 11:15:22;;;;;;;2.10;0.85;;;19.60;99.90;;;;;;5050942;28;20037;-72
2023/08/10 11:17:51;;;;;;;4.50;0.80;;;19.50;99.90;;;;;;5050904;28;20037;-72
2023/08/10 11:20:18;;;;;;;3.42;1.02;;;19.60;99.90;;;;;;5051158;28;20033;-72
2023/08/10 11:22:45;;;;;;;4.57;1.40;;;19.60;99.90;;;;;;5049686;28;20037;-72
2023/08/10 11:25:12;;;;;;;1.63;0.63;;;19.80;99.90;;;;;;5050977;28;20519;-72
2023/08/10 11:27:45;;;;;;;2.38;0.82;;;19.90;99.90;;;;;;5049398;28;20550;-72
2023/08/10 11:30:14;;;;;;;6.45;1.33;;;19.90;99.90;;;;;;5051001;28;20045;-72
2023/08/10 11:32:41;;;;;;;6.88;1.23;;;19.80;99.90;;;;;;5052738;28;20044;-72
2023/08/10 11:35:09;;;;;;;4.28;1.23;;;19.70;99.90;;;;;;5086724;28;20045;-72
2023/08/10 11:37:36;;;;;;;3.92;0.95;;;19.70;99.90;;;;;;5087134;28;20052;-72
2023/08/10 11:40:17;;;;;;;3.33;0.80;;;19.70;99.90;;;;;;5054661;28;20099;-72
2023/08/10 11:42:47;;;;;;;2.72;1.17;;;19.70;99.90;;;;;;5053318;28;20075;-72
2023/08/10 11:45:19;;;;;;;5.15;1.00;;;19.70;99.90;;;;;;5054340;28;20064;-72
2023/08/10 11:47:50;;;;;;;5.22;1.73;;;19.80;99.90;;;;;;5054028;28;20472;-72
2023/08/10 11:50:16;;;;;;;4.38;1.60;;;19.90;99.90;;;;;;5054532;28;20049;-72
2023/08/10 11:52:42;;;;;;;3.30;1.30;;;19.90;99.90;;;;;;5052921;28;20051;-72
2023/08/10 11:55:13;;;;;;;6.13;1.25;;;20.00;99.90;;;;;;5052883;28;20037;-72
2023/08/10 11:57:48;;;;;;;3.40;1.20;;;19.90;99.90;;;;;;5052827;28;20100;-72
2023/08/10 12:00:26;;;;;;;1.73;0.95;;;19.80;99.90;;;;;;5053010;28;20037;-72
2023/08/10 12:02:58;;;;;;;4.45;1.60;;;19.70;99.90;;;;;;5052794;28;20048;-72
2023/08/10 12:05:51;;;;;;;2.30;0.98;;;19.80;99.90;;;;;;5053873;28;20397;-72
2023/08/10 12:08:38;;;;;;;6.30;2.05;;;19.80;99.90;;;;;;5083277;28;20508;-72
2023/08/10 12:11:12;;;;;;;4.75;1.67;;;19.80;99.90;;;;;;5054159;28;20400;-72
2023/08/10 12:13:48;;;;;;;3.20;1.20;;;19.80;99.90;;;;;;5052464;28;20040;-72
2023/08/10 12:16:18;;;;;;;4.13;0.88;;;19.80;99.90;;;;;;5053776;28;20041;-72
2023/08/10 12:18:44;;;;;;;4.80;1.13;;;19.90;99.90;;;;;;5053519;28;20040;-72
2023/08/10 12:21:10;;;;;;;2.20;1.00;;;19.90;99.90;;;;;;5052408;28;20040;-72
2023/08/10 12:23:35;;;;;;;4.45;0.90;;;19.70;99.90;;;;;;5053838;28;20412;-72
2023/08/10 12:26:01;;;;;;;3.20;1.10;;;19.90;99.90;;;;;;5053402;28;20412;-72
2023/08/10 12:28:27;;;;;;;3.38;1.30;;;19.80;99.90;;;;;;5053451;28;20515;-72
2023/08/10 12:30:52;;;;;;;2.40;1.48;;;19.90;99.90;;;;;;5052505;28;20415;-72
2023/08/10 12:33:19;;;;;;;3.40;1.45;;;19.90;99.90;;;;;;5035583;28;20051;-71
2023/08/10 12:35:45;;;;;;;4.80;2.22;;;19.90;99.90;;;;;;5052047;28;20033;-72
2023/08/10 12:38:11;;;;;;;4.68;1.77;;;19.80;99.90;;;;;;5053101;28;20493;-72
2023/08/10 12:40:37;;;;;;;3.65;1.38;;;19.70;99.90;;;;;;5053475;28;20036;-72
2023/08/10 12:43:03;;;;;;;3.97;1.90;;;19.80;99.90;;;;;;5053036;28;20072;-72
2023/08/10 12:45:29;;;;;;;3.80;1.40;;;19.70;99.90;;;;;;5053254;28;20079;-72
2023/08/10 12:47:55;;;;;;;8.93;1.85;;;19.80;99.90;;;;;;5051685;28;20095;-72